Weather History for Newberry, MI

Change the Weather History Date:

Monday, August 18, 2014

  Actual Average Record
Temperature  
Mean Temperature 56 °F -  
Max Temperature 70 °F 73 °F 95 °F (1955)
Min Temperature 42 °F 51 °F 12 °F (1997)
Degree Days  
Heating Degree Days 9    
Growing Degree Days 6 (Base 50)    
Moisture  
Dew Point 53 °F    
Average Humidity 91    
Maximum Humidity 100    
Minimum Humidity 62    
Precipitation  
Precipitation 0.23 in - - ()
Sea Level Pressure  
Sea Level Pressure 29.91 in    
Wind  
Wind Speed 6 mph (SSE)    
Max Wind Speed 15 mph    
Max Gust Speed 21 mph    
Visibility 6 miles    
Events Fog , Rain    
Averages and records for this station are not official NWS values.
T = Trace of Precipitation, MM = Missing Value Source: NWS Daily Summary

Daily Weather History Graph

Daily Weather History Graph

Search for Another Location

Airport:

Trip Planner

Search our weather history database for the weather conditions in past years. The results will help you decide how hot, cold, wet, or windy it might be!

Date:

Astronomy

Aug. 18, 2014 Rise Set
Actual Time 6:44 AM EDT 8:45 PM EDT
Civil Twilight 6:11 AM EDT 9:18 PM EDT
Nautical Twilight 5:31 AM EDT 9:58 PM EDT
Astronomical Twilight 4:47 AM EDT 10:42 PM EDT
Moon 12:46 AM EDT (8/18) 3:53 PM EDT (8/18)
Length of Visible Light 15h 06m
Length of Day
14h 01m
Last Quarter, 38% of the Moon is Illuminated
Aug 18
Last Quarter
Aug 25
New
Sep 2
First Quarter
Sep 8
Full
Sep 15
Last Quarter

Hourly Weather History & Observations

Time (EDT) Temp. Windchill Dew Point Humidity Pressure Visibility Wind Dir Wind Speed Gust Speed Precip Events Conditions
12:14 AM 47.8 °F - 46.9 °F 97% 30.01 in 10.0 mi NNW 9.2 mph - N/A   Clear
12:34 AM 46.9 °F - 46.4 °F 98% 30.01 in 10.0 mi NNW 9.2 mph - N/A   Clear
12:55 AM 47.3 °F - 46.6 °F 97% 30.01 in 10.0 mi North 5.8 mph - N/A   Clear
1:14 AM 46.2 °F 43.3 °F 45.7 °F 98% 30.01 in 10.0 mi North 5.8 mph - N/A   Clear
1:34 AM 46.6 °F - 46.4 °F 99% 30.01 in 5.0 mi Calm Calm - N/A   Clear
1:55 AM 45.5 °F 44.2 °F 45.3 °F 99% 29.99 in 2.0 mi NNE 3.5 mph - N/A   Clear
2:14 AM 46.2 °F - 46.0 °F 99% 29.99 in 7.0 mi Calm Calm - N/A   Clear
2:34 AM 45.7 °F - 45.5 °F 99% 29.98 in 1.0 mi Calm Calm - N/A   Mist
2:55 AM 45.9 °F - 45.9 °F 100% 29.98 in 1.0 mi Calm Calm - N/A   Mist
3:14 AM 46.0 °F 44.8 °F 46.0 °F 100% 29.98 in 1.5 mi NNE 3.5 mph - N/A   Mist
3:35 AM 45.1 °F 43.7 °F 45.1 °F 100% 29.98 in 1.0 mi South 3.5 mph - N/A   Mist
3:54 AM 43.9 °F 41.3 °F 43.7 °F 99% 29.98 in 0.8 mi WNW 4.6 mph - N/A   Mostly Cloudy
4:14 AM 45.1 °F 42.0 °F 45.1 °F 100% 29.97 in 1.2 mi SSW 5.8 mph - N/A   Scattered Clouds
4:34 AM 44.8 °F 42.4 °F 44.8 °F 100% 29.97 in 0.8 mi South 4.6 mph - N/A   Mostly Cloudy
4:54 AM 42.1 °F 39.2 °F 41.9 °F 99% 29.97 in 4.0 mi South 4.6 mph - N/A   Scattered Clouds
5:15 AM 44.8 °F 41.6 °F 44.8 °F 100% 29.96 in 10.0 mi SW 5.8 mph - N/A   Clear
5:34 AM 45.3 °F - 45.3 °F 100% 29.97 in 10.0 mi Calm Calm - N/A   Clear
5:54 AM 44.6 °F 42.2 °F 44.6 °F 100% 29.97 in 5.0 mi SW 4.6 mph - N/A   Clear
6:15 AM 44.4 °F 42.9 °F 44.4 °F 100% 29.96 in 1.5 mi South 3.5 mph - N/A   Mostly Cloudy
6:34 AM 44.2 °F 41.8 °F 44.2 °F 100% 29.97 in 3.0 mi WSW 4.6 mph - N/A   Mostly Cloudy
6:54 AM 45.7 °F 44.4 °F 45.7 °F 100% 29.96 in 1.2 mi SSW 3.5 mph - N/A   Overcast
7:14 AM 45.5 °F 43.2 °F 45.5 °F 100% 29.97 in 4.0 mi SW 4.6 mph - N/A   Scattered Clouds
7:34 AM 45.9 °F 44.6 °F 45.9 °F 100% 29.96 in 1.2 mi South 3.5 mph - N/A   Overcast
7:55 AM 47.3 °F - 47.3 °F 100% 29.96 in 0.2 mi SSW 4.6 mph - N/A Fog Fog
8:14 AM 49.3 °F - 49.3 °F 100% 29.96 in 0.5 mi ESE 6.9 mph - N/A Fog Fog
8:35 AM 50.4 °F - 50.4 °F 100% 29.96 in 0.2 mi ESE 6.9 mph - N/A Fog Fog
8:54 AM 51.1 °F - 51.1 °F 100% 29.96 in 0.2 mi ESE 6.9 mph - N/A Fog Fog
9:15 AM 52.0 °F - 52.0 °F 100% 29.96 in 0.5 mi ESE 8.1 mph - N/A Fog Fog
9:34 AM 54.9 °F - 54.7 °F 99% 29.95 in 4.0 mi ESE 6.9 mph - N/A   Overcast
9:55 AM 60.1 °F - 56.3 °F 87% 29.95 in 10.0 mi SE 5.8 mph - N/A   Scattered Clouds
10:14 AM 61.2 °F - 55.9 °F 83% 29.94 in 10.0 mi SE 10.4 mph - N/A   Scattered Clouds
10:34 AM 63.0 °F - 55.9 °F 78% 29.94 in 10.0 mi SSE 9.2 mph - N/A   Clear
10:55 AM 63.3 °F - 55.8 °F 76% 29.93 in 10.0 mi SE 10.4 mph - N/A   Mostly Cloudy
11:14 AM 65.5 °F - 55.9 °F 71% 29.92 in 10.0 mi SE 11.5 mph - N/A   Overcast
11:34 AM 67.5 °F - 55.8 °F 66% 29.91 in 10.0 mi SSE 9.2 mph - N/A   Mostly Cloudy
11:55 AM 68.5 °F - 56.1 °F 64% 29.91 in 10.0 mi SSE 11.5 mph - N/A   Scattered Clouds
12:14 PM 68.9 °F - 56.3 °F 64% 29.91 in 10.0 mi SSE 13.8 mph 20.7 mph N/A   Mostly Cloudy
12:34 PM 69.8 °F - 56.7 °F 63% 29.90 in 10.0 mi SSE 15.0 mph 19.6 mph N/A   Mostly Cloudy
12:54 PM 70.7 °F - 57.0 °F 62% 29.90 in 10.0 mi South 11.5 mph - N/A   Mostly Cloudy
1:14 PM 68.9 °F - 56.8 °F 65% 29.89 in 10.0 mi South 10.4 mph - N/A   Overcast
1:34 PM 67.6 °F - 56.7 °F 68% 29.89 in 10.0 mi SSW 10.4 mph 19.6 mph N/A   Overcast
1:54 PM 67.6 °F - 56.5 °F 67% 29.89 in 10.0 mi South 10.4 mph - N/A   Overcast
2:14 PM 65.7 °F - 58.3 °F 77% 29.89 in 5.0 mi South 8.1 mph - N/A Rain Light Rain
2:35 PM 66.6 °F - 59.2 °F 77% 29.89 in 10.0 mi South 10.4 mph - N/A   Overcast
2:54 PM 66.4 °F - 58.8 °F 77% 29.88 in 7.0 mi South 9.2 mph - N/A   Overcast
3:14 PM 63.9 °F - 60.8 °F 90% 29.88 in 3.0 mi South 3.5 mph - 0.01 in Rain Light Rain
3:35 PM 64.4 °F - 61.2 °F 89% 29.87 in 7.0 mi South 3.5 mph - 0.01 in   Overcast
3:54 PM 64.4 °F - 61.3 °F 90% 29.87 in 7.0 mi SW 5.8 mph - 0.02 in Rain Light Rain
4:14 PM 64.9 °F - 61.3 °F 88% 29.86 in 10.0 mi SSW 5.8 mph - N/A   Overcast
4:34 PM 64.6 °F - 61.0 °F 88% 29.85 in 7.0 mi SE 4.6 mph - N/A   Overcast
4:54 PM 64.2 °F - 60.4 °F 87% 29.85 in 5.0 mi SSE 8.1 mph - N/A Rain Light Rain
5:15 PM 63.0 °F - 60.4 °F 91% 29.85 in 7.0 mi SSW 5.8 mph - N/A   Overcast
5:34 PM 62.8 °F - 60.4 °F 92% 29.85 in 5.0 mi South 6.9 mph - 0.01 in Rain Light Rain
5:54 PM 61.7 °F - 60.3 °F 95% 29.86 in 2.5 mi SSE 6.9 mph - 0.01 in   Overcast
6:15 PM 60.8 °F - 59.9 °F 97% 29.84 in 2.5 mi ESE 9.2 mph - 0.01 in Rain Light Rain
6:34 PM 59.7 °F - 59.0 °F 97% 29.84 in 2.5 mi East 9.2 mph - 0.03 in   Light Drizzle
6:54 PM 59.0 °F - 58.3 °F 97% 29.83 in 4.0 mi SSE 6.9 mph - 0.04 in   Overcast
7:14 PM 58.5 °F - 57.7 °F 97% 29.82 in 5.0 mi SE 6.9 mph 17.3 mph N/A   Overcast
7:34 PM 58.1 °F - 57.4 °F 97% 29.82 in 7.0 mi SE 8.1 mph 16.1 mph 0.01 in   Overcast
7:54 PM 58.1 °F - 57.4 °F 97% 29.81 in 7.0 mi SSE 5.8 mph - 0.01 in   Overcast
8:14 PM 58.1 °F - 57.4 °F 97% 29.81 in 7.0 mi SE 3.5 mph - N/A Rain Light Rain
8:34 PM 58.1 °F - 57.2 °F 97% 29.81 in 7.0 mi SE 6.9 mph - N/A   Overcast
8:55 PM 57.9 °F - 57.2 °F 97% 29.80 in 10.0 mi SSE 4.6 mph - N/A   Overcast
9:14 PM 57.6 °F - 56.8 °F 97% 29.80 in 4.0 mi SE 6.9 mph - 0.01 in Rain Light Rain
9:34 PM 57.7 °F - 56.8 °F 97% 29.81 in 5.0 mi SE 6.9 mph - 0.03 in Rain Rain
9:55 PM 57.4 °F - 56.7 °F 97% 29.80 in 5.0 mi SE 4.6 mph - 0.11 in Rain Light Rain
10:14 PM 57.2 °F - 56.7 °F 98% 29.79 in 5.0 mi SSE 5.8 mph - 0.01 in   Overcast
10:34 PM 57.2 °F - 56.7 °F 98% 29.79 in 5.0 mi SE 4.6 mph - 0.01 in   Overcast
10:54 PM 57.2 °F - 56.7 °F 98% 29.79 in 3.0 mi SSE 5.8 mph - 0.03 in Rain Light Rain
11:14 PM 57.2 °F - 56.7 °F 98% 29.78 in 4.0 mi SE 5.8 mph - 0.01 in Rain Light Rain
11:34 PM 57.4 °F - 56.8 °F 98% 29.77 in 7.0 mi SE 5.8 mph - 0.01 in   Overcast